sensor_id;sensor_type;location;lat;lon;timestamp;P1;durP1;ratioP1;P2;durP2;ratioP2
78995;SDS011;68401;47.192;-1.552;2023-06-22T00:02:12;6.63;;;4.22;;
78995;SDS011;68401;47.192;-1.552;2023-06-22T00:04:37;8.68;;;4.18;;
78995;SDS011;68401;47.192;-1.552;2023-06-22T00:07:03;10.40;;;4.35;;
78995;SDS011;68401;47.192;-1.552;2023-06-22T00:09:28;8.00;;;4.30;;
78995;SDS011;68401;47.192;-1.552;2023-06-22T00:11:54;6.55;;;3.92;;
78995;SDS011;68401;47.192;-1.552;2023-06-22T00:14:19;7.65;;;4.45;;
78995;SDS011;68401;47.192;-1.552;2023-06-22T00:16:45;5.70;;;4.60;;
78995;SDS011;68401;47.192;-1.552;2023-06-22T00:19:13;7.20;;;4.90;;
78995;SDS011;68401;47.192;-1.552;2023-06-22T00:21:39;8.38;;;4.28;;
78995;SDS011;68401;47.192;-1.552;2023-06-22T00:24:04;5.80;;;4.43;;
78995;SDS011;68401;47.192;-1.552;2023-06-22T00:26:31;7.78;;;3.97;;
78995;SDS011;68401;47.192;-1.552;2023-06-22T00:28:56;7.45;;;4.20;;
78995;SDS011;68401;47.192;-1.552;2023-06-22T00:31:21;6.75;;;4.95;;
78995;SDS011;68401;47.192;-1.552;2023-06-22T00:33:47;7.30;;;4.20;;
78995;SDS011;68401;47.192;-1.552;2023-06-22T00:36:12;8.63;;;4.05;;
78995;SDS011;68401;47.192;-1.552;2023-06-22T00:38:41;6.45;;;4.13;;
78995;SDS011;68401;47.192;-1.552;2023-06-22T00:41:06;10.98;;;4.93;;
78995;SDS011;68401;47.192;-1.552;2023-06-22T00:43:32;6.30;;;3.95;;
78995;SDS011;68401;47.192;-1.552;2023-06-22T00:45:57;5.60;;;4.10;;
78995;SDS011;68401;47.192;-1.552;2023-06-22T00:48:22;8.57;;;4.05;;
78995;SDS011;68401;47.192;-1.552;2023-06-22T00:50:48;6.53;;;3.72;;
78995;SDS011;68401;47.192;-1.552;2023-06-22T00:53:16;8.82;;;5.15;;
78995;SDS011;68401;47.192;-1.552;2023-06-22T00:55:42;5.68;;;3.63;;
78995;SDS011;68401;47.192;-1.552;2023-06-22T00:58:09;4.68;;;3.60;;
78995;SDS011;68401;47.192;-1.552;2023-06-22T01:00:35;5.65;;;3.72;;
78995;SDS011;68401;47.192;-1.552;2023-06-22T01:03:01;5.15;;;3.75;;
78995;SDS011;68401;47.192;-1.552;2023-06-22T01:05:27;9.23;;;4.18;;
78995;SDS011;68401;47.192;-1.552;2023-06-22T01:10:50;7.18;;;4.00;;
78995;SDS011;68401;47.192;-1.552;2023-06-22T01:16:17;6.80;;;3.55;;
78995;SDS011;68401;47.192;-1.552;2023-06-22T01:18:45;4.93;;;3.72;;
78995;SDS011;68401;47.192;-1.552;2023-06-22T01:21:14;6.30;;;4.25;;
78995;SDS011;68401;47.192;-1.552;2023-06-22T01:26:42;7.57;;;4.40;;
78995;SDS011;68401;47.192;-1.552;2023-06-22T01:29:11;7.82;;;4.18;;
78995;SDS011;68401;47.192;-1.552;2023-06-22T01:31:38;8.60;;;3.80;;
78995;SDS011;68401;47.192;-1.552;2023-06-22T01:34:05;7.43;;;4.00;;
78995;SDS011;68401;47.192;-1.552;2023-06-22T01:36:32;8.30;;;3.50;;
78995;SDS011;68401;47.192;-1.552;2023-06-22T01:38:57;5.63;;;3.97;;
78995;SDS011;68401;47.192;-1.552;2023-06-22T01:41:25;6.40;;;3.60;;
78995;SDS011;68401;47.192;-1.552;2023-06-22T01:43:51;5.72;;;3.80;;
78995;SDS011;68401;47.192;-1.552;2023-06-22T01:46:18;6.45;;;3.40;;
78995;SDS011;68401;47.192;-1.552;2023-06-22T01:48:46;5.13;;;3.50;;
78995;SDS011;68401;47.192;-1.552;2023-06-22T01:51:12;4.68;;;3.45;;
78995;SDS011;68401;47.192;-1.552;2023-06-22T01:53:38;6.75;;;3.90;;
78995;SDS011;68401;47.192;-1.552;2023-06-22T01:56:04;4.97;;;3.95;;
78995;SDS011;68401;47.192;-1.552;2023-06-22T01:58:30;7.40;;;4.43;;
78995;SDS011;68401;47.192;-1.552;2023-06-22T02:01:11;8.45;;;4.22;;
78995;SDS011;68401;47.192;-1.552;2023-06-22T02:03:41;5.80;;;3.97;;
78995;SDS011;68401;47.192;-1.552;2023-06-22T02:06:17;6.25;;;4.35;;
78995;SDS011;68401;47.192;-1.552;2023-06-22T02:08:49;6.32;;;4.47;;
78995;SDS011;68401;47.192;-1.552;2023-06-22T02:11:19;7.43;;;4.15;;
78995;SDS011;68401;47.192;-1.552;2023-06-22T02:13:45;6.72;;;5.15;;
78995;SDS011;68401;47.192;-1.552;2023-06-22T02:16:11;6.28;;;4.50;;
78995;SDS011;68401;47.192;-1.552;2023-06-22T02:18:37;6.53;;;4.13;;
78995;SDS011;68401;47.192;-1.552;2023-06-22T02:21:02;5.72;;;3.67;;
78995;SDS011;68401;47.192;-1.552;2023-06-22T02:23:28;6.70;;;4.40;;
78995;SDS011;68401;47.192;-1.552;2023-06-22T02:25:53;6.07;;;4.22;;
78995;SDS011;68401;47.192;-1.552;2023-06-22T02:28:19;8.35;;;4.55;;
78995;SDS011;68401;47.192;-1.552;2023-06-22T02:30:44;6.55;;;4.20;;
78995;SDS011;68401;47.192;-1.552;2023-06-22T02:33:09;6.25;;;4.10;;
78995;SDS011;68401;47.192;-1.552;2023-06-22T02:35:35;8.20;;;4.57;;
78995;SDS011;68401;47.192;-1.552;2023-06-22T02:38:02;8.20;;;5.00;;
78995;SDS011;68401;47.192;-1.552;2023-06-22T02:40:28;7.03;;;4.53;;
78995;SDS011;68401;47.192;-1.552;2023-06-22T02:42:54;5.78;;;4.25;;
78995;SDS011;68401;47.192;-1.552;2023-06-22T02:45:20;7.65;;;4.00;;
78995;SDS011;68401;47.192;-1.552;2023-06-22T02:47:46;7.75;;;4.47;;
78995;SDS011;68401;47.192;-1.552;2023-06-22T02:50:13;7.07;;;4.22;;
78995;SDS011;68401;47.192;-1.552;2023-06-22T02:52:38;6.68;;;4.40;;
78995;SDS011;68401;47.192;-1.552;2023-06-22T02:55:04;6.30;;;4.07;;
78995;SDS011;68401;47.192;-1.552;2023-06-22T02:57:30;7.97;;;4.88;;
78995;SDS011;68401;47.192;-1.552;2023-06-22T02:59:55;7.57;;;4.85;;
78995;SDS011;68401;47.192;-1.552;2023-06-22T03:02:21;6.88;;;4.10;;
78995;SDS011;68401;47.192;-1.552;2023-06-22T03:04:47;7.88;;;5.13;;
78995;SDS011;68401;47.192;-1.552;2023-06-22T03:07:14;5.60;;;4.30;;
78995;SDS011;68401;47.192;-1.552;2023-06-22T03:09:39;7.40;;;4.25;;
78995;SDS011;68401;47.192;-1.552;2023-06-22T03:12:07;8.30;;;5.38;;
78995;SDS011;68401;47.192;-1.552;2023-06-22T03:14:33;10.60;;;5.00;;
78995;SDS011;68401;47.192;-1.552;2023-06-22T03:16:58;7.07;;;4.60;;
78995;SDS011;68401;47.192;-1.552;2023-06-22T03:19:28;9.82;;;5.45;;
78995;SDS011;68401;47.192;-1.552;2023-06-22T03:21:54;6.45;;;4.82;;
78995;SDS011;68401;47.192;-1.552;2023-06-22T03:24:20;9.82;;;5.35;;
78995;SDS011;68401;47.192;-1.552;2023-06-22T03:26:45;8.45;;;5.07;;
78995;SDS011;68401;47.192;-1.552;2023-06-22T03:29:11;7.50;;;4.20;;
78995;SDS011;68401;47.192;-1.552;2023-06-22T03:31:37;10.68;;;5.05;;
78995;SDS011;68401;47.192;-1.552;2023-06-22T03:34:02;7.15;;;4.82;;
78995;SDS011;68401;47.192;-1.552;2023-06-22T03:36:28;7.53;;;4.47;;
78995;SDS011;68401;47.192;-1.552;2023-06-22T03:38:53;8.23;;;4.75;;
78995;SDS011;68401;47.192;-1.552;2023-06-22T03:41:19;7.10;;;5.22;;
78995;SDS011;68401;47.192;-1.552;2023-06-22T03:43:44;7.43;;;4.75;;
78995;SDS011;68401;47.192;-1.552;2023-06-22T03:46:10;7.43;;;4.88;;
78995;SDS011;68401;47.192;-1.552;2023-06-22T03:48:35;9.32;;;5.07;;
78995;SDS011;68401;47.192;-1.552;2023-06-22T03:51:01;6.55;;;5.00;;
78995;SDS011;68401;47.192;-1.552;2023-06-22T03:53:27;7.20;;;4.60;;
78995;SDS011;68401;47.192;-1.552;2023-06-22T03:55:53;6.90;;;5.68;;
78995;SDS011;68401;47.192;-1.552;2023-06-22T03:58:19;8.25;;;4.57;;
78995;SDS011;68401;47.192;-1.552;2023-06-22T04:00:45;11.45;;;5.13;;
78995;SDS011;68401;47.192;-1.552;2023-06-22T04:03:12;8.88;;;4.80;;
78995;SDS011;68401;47.192;-1.552;2023-06-22T04:05:38;7.68;;;5.25;;
78995;SDS011;68401;47.192;-1.552;2023-06-22T04:08:04;8.43;;;4.78;;
78995;SDS011;68401;47.192;-1.552;2023-06-22T04:10:30;8.10;;;5.35;;
78995;SDS011;68401;47.192;-1.552;2023-06-22T04:12:55;8.32;;;5.43;;
78995;SDS011;68401;47.192;-1.552;2023-06-22T04:15:21;11.48;;;6.03;;
78995;SDS011;68401;47.192;-1.552;2023-06-22T04:17:47;7.57;;;4.80;;
78995;SDS011;68401;47.192;-1.552;2023-06-22T04:20:12;7.10;;;5.25;;
78995;SDS011;68401;47.192;-1.552;2023-06-22T04:22:37;8.35;;;4.95;;
78995;SDS011;68401;47.192;-1.552;2023-06-22T04:25:03;6.55;;;4.85;;
78995;SDS011;68401;47.192;-1.552;2023-06-22T04:27:28;9.45;;;5.20;;
78995;SDS011;68401;47.192;-1.552;2023-06-22T04:29:54;9.15;;;5.00;;
78995;SDS011;68401;47.192;-1.552;2023-06-22T04:32:19;7.88;;;5.85;;
78995;SDS011;68401;47.192;-1.552;2023-06-22T04:34:45;7.45;;;5.68;;
78995;SDS011;68401;47.192;-1.552;2023-06-22T04:37:10;8.18;;;5.78;;
78995;SDS011;68401;47.192;-1.552;2023-06-22T04:39:40;9.00;;;5.18;;
78995;SDS011;68401;47.192;-1.552;2023-06-22T04:42:06;7.50;;;4.97;;
78995;SDS011;68401;47.192;-1.552;2023-06-22T04:44:32;10.48;;;6.20;;
78995;SDS011;68401;47.192;-1.552;2023-06-22T04:46:58;8.02;;;5.40;;
78995;SDS011;68401;47.192;-1.552;2023-06-22T04:49:28;9.30;;;5.75;;
78995;SDS011;68401;47.192;-1.552;2023-06-22T04:54:28;8.90;;;5.93;;
78995;SDS011;68401;47.192;-1.552;2023-06-22T04:56:54;9.88;;;5.47;;
78995;SDS011;68401;47.192;-1.552;2023-06-22T05:01:52;9.15;;;5.97;;
78995;SDS011;68401;47.192;-1.552;2023-06-22T05:04:18;10.85;;;6.03;;
78995;SDS011;68401;47.192;-1.552;2023-06-22T05:06:44;10.50;;;5.93;;
78995;SDS011;68401;47.192;-1.552;2023-06-22T05:09:10;7.60;;;5.40;;
78995;SDS011;68401;47.192;-1.552;2023-06-22T05:11:37;10.13;;;6.15;;
78995;SDS011;68401;47.192;-1.552;2023-06-22T05:14:02;11.18;;;6.25;;
78995;SDS011;68401;47.192;-1.552;2023-06-22T05:16:28;11.40;;;6.43;;
78995;SDS011;68401;47.192;-1.552;2023-06-22T05:18:53;8.48;;;5.28;;
78995;SDS011;68401;47.192;-1.552;2023-06-22T05:21:24;10.32;;;6.15;;
78995;SDS011;68401;47.192;-1.552;2023-06-22T05:23:50;12.55;;;6.10;;
78995;SDS011;68401;47.192;-1.552;2023-06-22T05:26:16;8.80;;;5.50;;
78995;SDS011;68401;47.192;-1.552;2023-06-22T05:28:41;8.57;;;5.78;;
78995;SDS011;68401;47.192;-1.552;2023-06-22T05:31:11;8.35;;;5.05;;
78995;SDS011;68401;47.192;-1.552;2023-06-22T05:33:37;8.80;;;6.10;;
78995;SDS011;68401;47.192;-1.552;2023-06-22T05:36:03;12.00;;;6.07;;
78995;SDS011;68401;47.192;-1.552;2023-06-22T05:38:28;8.27;;;5.57;;
78995;SDS011;68401;47.192;-1.552;2023-06-22T05:40:54;8.32;;;5.53;;
78995;SDS011;68401;47.192;-1.552;2023-06-22T05:43:19;7.53;;;4.88;;
78995;SDS011;68401;47.192;-1.552;2023-06-22T05:45:44;10.13;;;5.85;;
78995;SDS011;68401;47.192;-1.552;2023-06-22T05:48:10;9.00;;;5.47;;
78995;SDS011;68401;47.192;-1.552;2023-06-22T05:50:36;8.45;;;5.22;;
78995;SDS011;68401;47.192;-1.552;2023-06-22T05:53:02;20.90;;;5.82;;
78995;SDS011;68401;47.192;-1.552;2023-06-22T05:55:27;6.43;;;4.88;;
78995;SDS011;68401;47.192;-1.552;2023-06-22T05:57:53;8.02;;;5.38;;
78995;SDS011;68401;47.192;-1.552;2023-06-22T06:00:18;7.30;;;4.88;;
78995;SDS011;68401;47.192;-1.552;2023-06-22T06:02:44;9.85;;;4.95;;
78995;SDS011;68401;47.192;-1.552;2023-06-22T06:05:12;10.18;;;5.25;;
78995;SDS011;68401;47.192;-1.552;2023-06-22T06:07:44;6.50;;;4.72;;
78995;SDS011;68401;47.192;-1.552;2023-06-22T06:10:10;7.53;;;4.82;;
78995;SDS011;68401;47.192;-1.552;2023-06-22T06:12:35;8.57;;;4.60;;
78995;SDS011;68401;47.192;-1.552;2023-06-22T06:15:01;8.57;;;5.03;;
78995;SDS011;68401;47.192;-1.552;2023-06-22T06:17:27;7.95;;;4.95;;
78995;SDS011;68401;47.192;-1.552;2023-06-22T06:19:52;7.93;;;5.50;;
78995;SDS011;68401;47.192;-1.552;2023-06-22T06:22:18;7.95;;;5.18;;
78995;SDS011;68401;47.192;-1.552;2023-06-22T06:24:44;7.00;;;4.70;;
78995;SDS011;68401;47.192;-1.552;2023-06-22T06:27:10;7.70;;;4.97;;
78995;SDS011;68401;47.192;-1.552;2023-06-22T06:29:35;5.68;;;4.43;;
78995;SDS011;68401;47.192;-1.552;2023-06-22T06:32:01;6.95;;;4.65;;
78995;SDS011;68401;47.192;-1.552;2023-06-22T06:34:26;8.50;;;4.43;;
78995;SDS011;68401;47.192;-1.552;2023-06-22T06:36:51;7.30;;;4.68;;
78995;SDS011;68401;47.192;-1.552;2023-06-22T06:39:17;9.32;;;5.20;;
78995;SDS011;68401;47.192;-1.552;2023-06-22T06:41:42;6.10;;;4.35;;
78995;SDS011;68401;47.192;-1.552;2023-06-22T06:44:08;7.57;;;4.63;;
78995;SDS011;68401;47.192;-1.552;2023-06-22T06:46:33;9.32;;;4.88;;
78995;SDS011;68401;47.192;-1.552;2023-06-22T06:48:58;9.63;;;4.30;;
78995;SDS011;68401;47.192;-1.552;2023-06-22T06:51:24;9.65;;;4.40;;
78995;SDS011;68401;47.192;-1.552;2023-06-22T06:53:49;6.63;;;4.55;;
78995;SDS011;68401;47.192;-1.552;2023-06-22T06:56:14;5.90;;;4.03;;
78995;SDS011;68401;47.192;-1.552;2023-06-22T06:58:41;5.20;;;3.95;;
78995;SDS011;68401;47.192;-1.552;2023-06-22T07:01:10;8.25;;;4.65;;
78995;SDS011;68401;47.192;-1.552;2023-06-22T07:03:37;8.00;;;4.65;;
78995;SDS011;68401;47.192;-1.552;2023-06-22T07:06:02;6.45;;;4.32;;
78995;SDS011;68401;47.192;-1.552;2023-06-22T07:08:28;5.45;;;4.20;;
78995;SDS011;68401;47.192;-1.552;2023-06-22T07:10:53;10.05;;;4.95;;
78995;SDS011;68401;47.192;-1.552;2023-06-22T07:13:19;5.90;;;3.90;;
78995;SDS011;68401;47.192;-1.552;2023-06-22T07:15:44;6.07;;;3.85;;
78995;SDS011;68401;47.192;-1.552;2023-06-22T07:18:10;5.68;;;3.72;;
78995;SDS011;68401;47.192;-1.552;2023-06-22T07:20:35;7.45;;;4.35;;
78995;SDS011;68401;47.192;-1.552;2023-06-22T07:23:01;6.15;;;4.22;;
78995;SDS011;68401;47.192;-1.552;2023-06-22T07:25:26;8.02;;;4.43;;
78995;SDS011;68401;47.192;-1.552;2023-06-22T07:30:26;6.28;;;4.18;;
78995;SDS011;68401;47.192;-1.552;2023-06-22T07:32:52;5.68;;;4.20;;
78995;SDS011;68401;47.192;-1.552;2023-06-22T07:35:17;6.75;;;4.60;;
78995;SDS011;68401;47.192;-1.552;2023-06-22T07:37:43;7.85;;;4.20;;
78995;SDS011;68401;47.192;-1.552;2023-06-22T07:40:08;5.75;;;4.03;;
78995;SDS011;68401;47.192;-1.552;2023-06-22T07:42:34;6.05;;;4.32;;
78995;SDS011;68401;47.192;-1.552;2023-06-22T07:45:00;5.85;;;3.60;;
78995;SDS011;68401;47.192;-1.552;2023-06-22T07:47:26;7.90;;;3.78;;
78995;SDS011;68401;47.192;-1.552;2023-06-22T07:49:53;6.70;;;3.95;;
78995;SDS011;68401;47.192;-1.552;2023-06-22T07:52:25;4.72;;;3.45;;
78995;SDS011;68401;47.192;-1.552;2023-06-22T07:54:53;4.32;;;3.92;;
78995;SDS011;68401;47.192;-1.552;2023-06-22T07:57:19;6.65;;;3.72;;
78995;SDS011;68401;47.192;-1.552;2023-06-22T07:59:44;4.82;;;3.92;;
78995;SDS011;68401;47.192;-1.552;2023-06-22T08:02:10;5.75;;;3.80;;
78995;SDS011;68401;47.192;-1.552;2023-06-22T08:04:36;8.65;;;4.75;;
78995;SDS011;68401;47.192;-1.552;2023-06-22T08:07:01;8.23;;;4.45;;
78995;SDS011;68401;47.192;-1.552;2023-06-22T08:09:29;4.22;;;3.63;;
78995;SDS011;68401;47.192;-1.552;2023-06-22T08:11:56;6.22;;;4.00;;
78995;SDS011;68401;47.192;-1.552;2023-06-22T08:14:21;5.85;;;3.97;;
78995;SDS011;68401;47.192;-1.552;2023-06-22T08:16:50;7.13;;;4.00;;
78995;SDS011;68401;47.192;-1.552;2023-06-22T08:19:16;5.82;;;4.05;;
78995;SDS011;68401;47.192;-1.552;2023-06-22T08:21:42;5.25;;;3.60;;
78995;SDS011;68401;47.192;-1.552;2023-06-22T08:24:07;5.43;;;3.78;;
78995;SDS011;68401;47.192;-1.552;2023-06-22T08:26:33;4.55;;;3.25;;
78995;SDS011;68401;47.192;-1.552;2023-06-22T08:29:02;5.47;;;3.28;;
78995;SDS011;68401;47.192;-1.552;2023-06-22T08:31:28;4.00;;;3.47;;
78995;SDS011;68401;47.192;-1.552;2023-06-22T08:33:53;6.90;;;3.75;;
78995;SDS011;68401;47.192;-1.552;2023-06-22T08:36:18;9.18;;;4.35;;
78995;SDS011;68401;47.192;-1.552;2023-06-22T08:38:44;5.50;;;3.58;;
78995;SDS011;68401;47.192;-1.552;2023-06-22T08:41:10;4.30;;;3.70;;
78995;SDS011;68401;47.192;-1.552;2023-06-22T08:43:35;6.57;;;4.28;;
78995;SDS011;68401;47.192;-1.552;2023-06-22T08:46:01;8.18;;;3.92;;
78995;SDS011;68401;47.192;-1.552;2023-06-22T08:48:27;9.95;;;4.80;;
78995;SDS011;68401;47.192;-1.552;2023-06-22T08:50:53;8.10;;;4.88;;
78995;SDS011;68401;47.192;-1.552;2023-06-22T08:53:18;6.13;;;3.85;;
78995;SDS011;68401;47.192;-1.552;2023-06-22T08:55:44;4.20;;;3.33;;
78995;SDS011;68401;47.192;-1.552;2023-06-22T08:58:10;5.78;;;3.55;;
78995;SDS011;68401;47.192;-1.552;2023-06-22T09:00:35;4.97;;;3.30;;
78995;SDS011;68401;47.192;-1.552;2023-06-22T09:03:01;5.80;;;3.33;;
78995;SDS011;68401;47.192;-1.552;2023-06-22T09:05:26;5.00;;;3.60;;
78995;SDS011;68401;47.192;-1.552;2023-06-22T09:07:52;7.07;;;4.20;;
78995;SDS011;68401;47.192;-1.552;2023-06-22T09:10:19;6.43;;;3.80;;
78995;SDS011;68401;47.192;-1.552;2023-06-22T09:12:45;5.70;;;3.45;;
78995;SDS011;68401;47.192;-1.552;2023-06-22T09:15:10;5.05;;;3.60;;
78995;SDS011;68401;47.192;-1.552;2023-06-22T09:17:36;4.80;;;3.83;;
78995;SDS011;68401;47.192;-1.552;2023-06-22T09:20:02;4.82;;;3.50;;
78995;SDS011;68401;47.192;-1.552;2023-06-22T09:22:30;4.47;;;4.00;;
78995;SDS011;68401;47.192;-1.552;2023-06-22T09:24:56;4.65;;;3.67;;
78995;SDS011;68401;47.192;-1.552;2023-06-22T09:27:22;4.88;;;3.55;;
78995;SDS011;68401;47.192;-1.552;2023-06-22T09:29:48;5.90;;;4.28;;
78995;SDS011;68401;47.192;-1.552;2023-06-22T09:32:14;7.28;;;3.63;;
78995;SDS011;68401;47.192;-1.552;2023-06-22T09:34:39;4.30;;;3.78;;
78995;SDS011;68401;47.192;-1.552;2023-06-22T09:37:05;5.57;;;3.53;;
78995;SDS011;68401;47.192;-1.552;2023-06-22T09:39:30;4.65;;;4.13;;
78995;SDS011;68401;47.192;-1.552;2023-06-22T09:41:57;5.25;;;3.92;;
78995;SDS011;68401;47.192;-1.552;2023-06-22T09:44:24;6.30;;;4.63;;
78995;SDS011;68401;47.192;-1.552;2023-06-22T09:46:49;6.57;;;4.00;;
78995;SDS011;68401;47.192;-1.552;2023-06-22T09:49:15;6.90;;;4.22;;
78995;SDS011;68401;47.192;-1.552;2023-06-22T09:51:40;5.90;;;3.72;;
78995;SDS011;68401;47.192;-1.552;2023-06-22T09:54:05;6.13;;;3.60;;
78995;SDS011;68401;47.192;-1.552;2023-06-22T09:56:31;6.90;;;4.15;;
78995;SDS011;68401;47.192;-1.552;2023-06-22T09:58:56;6.65;;;3.75;;
78995;SDS011;68401;47.192;-1.552;2023-06-22T10:01:21;6.95;;;3.92;;
78995;SDS011;68401;47.192;-1.552;2023-06-22T10:03:47;4.75;;;3.85;;
78995;SDS011;68401;47.192;-1.552;2023-06-22T10:06:13;10.75;;;4.30;;
78995;SDS011;68401;47.192;-1.552;2023-06-22T10:08:38;7.20;;;4.07;;
78995;SDS011;68401;47.192;-1.552;2023-06-22T10:11:05;5.65;;;3.60;;
78995;SDS011;68401;47.192;-1.552;2023-06-22T10:13:31;5.65;;;3.22;;
78995;SDS011;68401;47.192;-1.552;2023-06-22T10:15:56;5.60;;;3.70;;
78995;SDS011;68401;47.192;-1.552;2023-06-22T10:18:22;5.40;;;3.53;;
78995;SDS011;68401;47.192;-1.552;2023-06-22T10:20:48;7.03;;;3.42;;
78995;SDS011;68401;47.192;-1.552;2023-06-22T10:23:16;3.63;;;2.55;;
78995;SDS011;68401;47.192;-1.552;2023-06-22T10:25:41;7.38;;;4.53;;
78995;SDS011;68401;47.192;-1.552;2023-06-22T10:28:07;6.35;;;3.10;;
78995;SDS011;68401;47.192;-1.552;2023-06-22T10:30:32;3.65;;;2.97;;
78995;SDS011;68401;47.192;-1.552;2023-06-22T10:32:57;3.88;;;3.35;;
78995;SDS011;68401;47.192;-1.552;2023-06-22T10:35:23;4.95;;;3.78;;
78995;SDS011;68401;47.192;-1.552;2023-06-22T10:37:48;4.82;;;3.50;;
78995;SDS011;68401;47.192;-1.552;2023-06-22T10:40:14;3.75;;;3.38;;
78995;SDS011;68401;47.192;-1.552;2023-06-22T10:42:41;5.82;;;3.97;;
78995;SDS011;68401;47.192;-1.552;2023-06-22T10:45:07;3.90;;;3.25;;
78995;SDS011;68401;47.192;-1.552;2023-06-22T10:47:33;3.83;;;3.13;;
78995;SDS011;68401;47.192;-1.552;2023-06-22T10:49:58;5.53;;;3.55;;
78995;SDS011;68401;47.192;-1.552;2023-06-22T10:52:24;4.90;;;3.97;;
78995;SDS011;68401;47.192;-1.552;2023-06-22T10:54:49;5.00;;;3.33;;
78995;SDS011;68401;47.192;-1.552;2023-06-22T10:57:15;4.05;;;3.15;;
78995;SDS011;68401;47.192;-1.552;2023-06-22T10:59:40;4.72;;;3.15;;
78995;SDS011;68401;47.192;-1.552;2023-06-22T11:02:05;7.30;;;3.10;;
78995;SDS011;68401;47.192;-1.552;2023-06-22T11:04:31;6.95;;;3.33;;
78995;SDS011;68401;47.192;-1.552;2023-06-22T11:06:56;5.95;;;3.00;;
78995;SDS011;68401;47.192;-1.552;2023-06-22T11:09:22;3.95;;;2.92;;
78995;SDS011;68401;47.192;-1.552;2023-06-22T11:11:48;4.88;;;2.90;;
78995;SDS011;68401;47.192;-1.552;2023-06-22T11:14:14;3.30;;;2.60;;
78995;SDS011;68401;47.192;-1.552;2023-06-22T11:16:40;3.92;;;3.28;;
78995;SDS011;68401;47.192;-1.552;2023-06-22T11:19:05;6.10;;;3.20;;
78995;SDS011;68401;47.192;-1.552;2023-06-22T11:21:31;3.75;;;3.00;;
78995;SDS011;68401;47.192;-1.552;2023-06-22T11:23:57;5.80;;;5.25;;
78995;SDS011;68401;47.192;-1.552;2023-06-22T11:26:24;4.70;;;3.55;;
78995;SDS011;68401;47.192;-1.552;2023-06-22T11:28:49;5.57;;;3.17;;
78995;SDS011;68401;47.192;-1.552;2023-06-22T11:31:15;4.78;;;3.25;;
78995;SDS011;68401;47.192;-1.552;2023-06-22T11:33:40;3.63;;;3.17;;
78995;SDS011;68401;47.192;-1.552;2023-06-22T11:36:05;4.00;;;3.22;;
78995;SDS011;68401;47.192;-1.552;2023-06-22T11:38:31;4.63;;;3.50;;
78995;SDS011;68401;47.192;-1.552;2023-06-22T11:41:00;5.10;;;3.53;;
78995;SDS011;68401;47.192;-1.552;2023-06-22T11:43:25;4.35;;;3.08;;
78995;SDS011;68401;47.192;-1.552;2023-06-22T11:45:51;4.55;;;3.25;;
78995;SDS011;68401;47.192;-1.552;2023-06-22T11:48:16;3.55;;;3.00;;
78995;SDS011;68401;47.192;-1.552;2023-06-22T11:50:42;3.80;;;2.80;;
78995;SDS011;68401;47.192;-1.552;2023-06-22T11:53:07;4.13;;;3.00;;
78995;SDS011;68401;47.192;-1.552;2023-06-22T11:55:32;4.28;;;2.97;;
78995;SDS011;68401;47.192;-1.552;2023-06-22T11:57:58;4.07;;;3.22;;
78995;SDS011;68401;47.192;-1.552;2023-06-22T12:00:25;3.60;;;2.83;;
78995;SDS011;68401;47.192;-1.552;2023-06-22T12:02:51;4.13;;;2.80;;
78995;SDS011;68401;47.192;-1.552;2023-06-22T12:05:20;3.38;;;2.63;;
78995;SDS011;68401;47.192;-1.552;2023-06-22T12:07:49;4.47;;;3.00;;
78995;SDS011;68401;47.192;-1.552;2023-06-22T12:10:15;3.50;;;2.83;;
78995;SDS011;68401;47.192;-1.552;2023-06-22T12:12:41;8.25;;;5.80;;
78995;SDS011;68401;47.192;-1.552;2023-06-22T12:15:07;4.40;;;3.30;;
78995;SDS011;68401;47.192;-1.552;2023-06-22T12:17:34;4.63;;;3.28;;
78995;SDS011;68401;47.192;-1.552;2023-06-22T12:19:59;4.18;;;2.60;;
78995;SDS011;68401;47.192;-1.552;2023-06-22T12:22:25;3.47;;;2.90;;
78995;SDS011;68401;47.192;-1.552;2023-06-22T12:24:51;5.95;;;2.90;;
78995;SDS011;68401;47.192;-1.552;2023-06-22T12:27:16;4.07;;;3.17;;
78995;SDS011;68401;47.192;-1.552;2023-06-22T12:29:43;4.40;;;3.08;;
78995;SDS011;68401;47.192;-1.552;2023-06-22T12:32:10;4.47;;;3.45;;
78995;SDS011;68401;47.192;-1.552;2023-06-22T12:34:38;4.35;;;3.25;;
78995;SDS011;68401;47.192;-1.552;2023-06-22T12:37:04;3.35;;;2.72;;
78995;SDS011;68401;47.192;-1.552;2023-06-22T12:39:30;4.47;;;3.30;;
78995;SDS011;68401;47.192;-1.552;2023-06-22T12:41:56;4.95;;;3.25;;
78995;SDS011;68401;47.192;-1.552;2023-06-22T12:44:21;4.05;;;2.97;;
78995;SDS011;68401;47.192;-1.552;2023-06-22T12:46:47;3.95;;;3.03;;
78995;SDS011;68401;47.192;-1.552;2023-06-22T12:49:12;3.95;;;3.10;;
78995;SDS011;68401;47.192;-1.552;2023-06-22T12:51:41;4.45;;;3.00;;
78995;SDS011;68401;47.192;-1.552;2023-06-22T12:54:07;4.07;;;3.17;;
78995;SDS011;68401;47.192;-1.552;2023-06-22T12:56:33;3.55;;;2.80;;
78995;SDS011;68401;47.192;-1.552;2023-06-22T12:58:59;3.90;;;3.40;;
78995;SDS011;68401;47.192;-1.552;2023-06-22T13:01:26;8.30;;;3.22;;
78995;SDS011;68401;47.192;-1.552;2023-06-22T13:03:52;3.92;;;2.78;;
78995;SDS011;68401;47.192;-1.552;2023-06-22T13:06:19;4.82;;;3.17;;
78995;SDS011;68401;47.192;-1.552;2023-06-22T13:08:45;4.80;;;3.10;;
78995;SDS011;68401;47.192;-1.552;2023-06-22T13:11:10;5.13;;;3.35;;
78995;SDS011;68401;47.192;-1.552;2023-06-22T13:13:35;4.18;;;3.15;;
78995;SDS011;68401;47.192;-1.552;2023-06-22T13:16:01;5.00;;;3.20;;
78995;SDS011;68401;47.192;-1.552;2023-06-22T13:18:26;4.10;;;3.00;;
78995;SDS011;68401;47.192;-1.552;2023-06-22T13:20:52;5.05;;;2.90;;
78995;SDS011;68401;47.192;-1.552;2023-06-22T13:23:19;3.67;;;2.75;;
78995;SDS011;68401;47.192;-1.552;2023-06-22T13:25:46;6.38;;;2.67;;
78995;SDS011;68401;47.192;-1.552;2023-06-22T13:28:11;4.30;;;3.05;;
78995;SDS011;68401;47.192;-1.552;2023-06-22T13:30:38;3.50;;;2.85;;
78995;SDS011;68401;47.192;-1.552;2023-06-22T13:33:04;3.67;;;2.90;;
78995;SDS011;68401;47.192;-1.552;2023-06-22T13:35:31;4.43;;;2.65;;
78995;SDS011;68401;47.192;-1.552;2023-06-22T13:37:57;4.47;;;2.88;;
78995;SDS011;68401;47.192;-1.552;2023-06-22T13:40:22;5.88;;;2.95;;
78995;SDS011;68401;47.192;-1.552;2023-06-22T13:42:48;4.20;;;2.78;;
78995;SDS011;68401;47.192;-1.552;2023-06-22T13:45:13;3.88;;;3.03;;
78995;SDS011;68401;47.192;-1.552;2023-06-22T13:47:41;5.50;;;2.97;;
78995;SDS011;68401;47.192;-1.552;2023-06-22T13:50:07;4.20;;;3.22;;
78995;SDS011;68401;47.192;-1.552;2023-06-22T13:52:34;5.47;;;3.33;;
78995;SDS011;68401;47.192;-1.552;2023-06-22T13:54:59;4.15;;;3.00;;
78995;SDS011;68401;47.192;-1.552;2023-06-22T13:57:25;5.05;;;3.28;;
78995;SDS011;68401;47.192;-1.552;2023-06-22T13:59:50;3.72;;;3.08;;
78995;SDS011;68401;47.192;-1.552;2023-06-22T14:02:15;4.35;;;2.88;;
78995;SDS011;68401;47.192;-1.552;2023-06-22T14:04:41;4.63;;;3.05;;
78995;SDS011;68401;47.192;-1.552;2023-06-22T14:07:06;4.72;;;3.03;;
78995;SDS011;68401;47.192;-1.552;2023-06-22T14:09:32;3.25;;;2.40;;
78995;SDS011;68401;47.192;-1.552;2023-06-22T14:11:57;4.90;;;2.88;;
78995;SDS011;68401;47.192;-1.552;2023-06-22T14:14:22;4.25;;;3.08;;
78995;SDS011;68401;47.192;-1.552;2023-06-22T14:16:48;4.45;;;3.40;;
78995;SDS011;68401;47.192;-1.552;2023-06-22T14:19:16;4.28;;;2.83;;
78995;SDS011;68401;47.192;-1.552;2023-06-22T14:21:42;5.03;;;3.03;;
78995;SDS011;68401;47.192;-1.552;2023-06-22T14:24:07;4.78;;;3.08;;
78995;SDS011;68401;47.192;-1.552;2023-06-22T14:26:33;5.20;;;2.90;;
78995;SDS011;68401;47.192;-1.552;2023-06-22T14:29:01;6.50;;;3.17;;
78995;SDS011;68401;47.192;-1.552;2023-06-22T14:31:26;5.20;;;3.22;;
78995;SDS011;68401;47.192;-1.552;2023-06-22T14:33:52;5.35;;;2.78;;
78995;SDS011;68401;47.192;-1.552;2023-06-22T14:36:18;5.88;;;3.00;;
78995;SDS011;68401;47.192;-1.552;2023-06-22T14:38:45;4.35;;;2.92;;
78995;SDS011;68401;47.192;-1.552;2023-06-22T14:41:11;4.45;;;3.10;;
78995;SDS011;68401;47.192;-1.552;2023-06-22T14:43:37;3.75;;;2.85;;